Annette Island, AK

5:07 AM AKDT on September 19, 2014 (GMT -0800)
Metlakatla | Change Station
CLOSE
Current Station
Airport
Location: Metlakatla,
Elevation: 0 ft
Nearby Weather Stations

Elev 0 ft 55.13 °N, 131.58 °W | Updated 31 minutes ago

Mostly Cloudy
Mostly Cloudy
54 °F
Feels Like 54 °F
N
8
Wind Variable Wind from South

Today
High -- | Low -- °F
--% Chance of Precip.
Yesterday
High -- | Low -- °F
Precip. -- in
6:26 AM 6:52 PM
Waning Crescent, 19% visible
Pressure 29.72 in
Visibility 10.0 miles
Clouds Few 2100 ft
Scattered Clouds 3000 ft
Mostly Cloudy 3900 ft
Dew Point 52 °F
Humidity 94%
Rainfall 0.07 in
Snow Depth 1 in , 1 in , 0 in
UV 0 out of 12
Pollen Not available.
Air Quality Not available.
Flu Activity Not available.
METAR PAMM 191236Z AUTO 17007KT 140V200 10SM FEW021 SCT030 BKN039 12/11 A2972 RMK AO1

More Conditions Fewer Conditions

Pressure 29.72 in
Visibility 10.0 miles
Clouds Few 2100 ft
Scattered Clouds 3000 ft
Mostly Cloudy 3900 ft
Dew Point 52 °F
Humidity 94%
Rainfall 0.07 in
Snow Depth 1 in , 1 in , 0 in
UV 0 out of 12
Pollen Not available.
Air Quality Not available.
Flu Activity Not available.
METAR PAMM 191236Z AUTO 17007KT 140V200 10SM FEW021 SCT030 BKN039 12/11 A2972 RMK AO1

More Conditions Fewer Conditions

10-Day Weather Forecast

Almanac

Astronomy

Sep. 19, 2014 Rise Set
Actual Time 6:26 AM AKDT 6:52 PM AKDT
Civil Twilight 5:50 AM AKDT 7:28 PM AKDT
Nautical Twilight 5:06 AM AKDT 8:12 PM AKDT
Astronomical Twilight 4:19 AM AKDT 8:58 PM AKDT
Moon 1:44 AM AKDT 4:53 PM AKDT
Length of Visible Light 13h 38m
Length of Day
12h 25m
Tomorrow will be 4m 27s shorter.
Waning Crescent, 19% of the Moon is Illuminated
Today
Waning Crescent
Sep 24
New
Oct 1
First Quarter
Oct 8
Full
Oct 15
Last Quarter

Today's Extremes

State Highs State Lows

Community

WunderPhotos

Upload Photos

1,754,606 photos uploaded!

WunderBlogs® & News

Nearby

Snow Depth

Station Depth Elevation
Munson Ridge 1 in 3100 ft
Mcneil Canyon 1 in 1320 ft
Grouse Creek Divide 0 in 700 ft
Little Chena Ridge 0 in 2000 ft
Cooper Lake 12 in 1200 ft

Earthquake Activity

City Distance Mag. Time & Date
No recent earthquake activity has been reported nearby.
Minimum magnitude displayed is 2.5.

Coastal Water Temperatures

Place Temperature
No Stations Reporting

Nearby Weather Stations